Time;durP1;ratioP1;P1;durP2;ratioP2;P2;SDS_P1;SDS_P2;PMS_P1;PMS_P2;Temp;Humidity;BMP_temperature;BMP_pressure;BME280_temperature;BME280_humidity;BME280_pressure;Samples;Min_cycle;Max_cycle;Signal;HPM_P1;HPM_P2
2021/05/10 00:00:20;;;;;;;5.78;1.42;;;21.20;52.00;;;;;;4998222;28;20039;-78
2021/05/10 00:02:45;;;;;;;4.43;1.13;;;21.10;51.80;;;;;;4995535;28;20042;-79
2021/05/10 00:05:11;;;;;;;1.85;0.88;;;21.20;52.10;;;;;;4988753;28;20504;-79
2021/05/10 00:07:37;;;;;;;1.90;1.15;;;21.10;52.00;;;;;;4985299;28;20037;-78
2021/05/10 00:10:04;;;;;;;2.45;1.27;;;21.10;52.10;;;;;;4980204;28;20038;-79
2021/05/10 00:12:30;;;;;;;6.03;1.45;;;21.20;52.20;;;;;;4980943;28;20538;-80
2021/05/10 00:14:55;;;;;;;1.52;1.05;;;21.10;52.00;;;;;;4996807;28;20100;-79
2021/05/10 00:17:21;;;;;;;2.05;1.02;;;21.10;52.10;;;;;;4968097;28;20045;-79
2021/05/10 00:19:46;;;;;;;8.98;2.10;;;21.00;52.20;;;;;;4972676;28;20029;-79
2021/05/10 00:22:12;;;;;;;1.83;1.00;;;21.00;52.40;;;;;;4964541;28;20056;-79
2021/05/10 00:24:37;;;;;;;4.20;1.25;;;20.90;52.40;;;;;;4976461;28;20034;-79
2021/05/10 00:27:03;;;;;;;1.27;1.00;;;21.00;52.40;;;;;;4982549;28;20038;-79
2021/05/10 00:29:29;;;;;;;2.38;1.30;;;21.00;52.40;;;;;;4980820;28;20504;-79
2021/05/10 00:31:54;;;;;;;2.08;1.10;;;21.00;52.30;;;;;;4984761;28;20045;-79
2021/05/10 00:34:20;;;;;;;5.75;2.80;;;21.00;52.20;;;;;;4971154;28;20279;-80
2021/05/10 00:36:45;;;;;;;3.55;1.00;;;21.00;52.30;;;;;;4980110;28;20031;-79
2021/05/10 00:39:11;;;;;;;2.42;1.17;;;21.00;52.50;;;;;;4962447;28;20022;-79
2021/05/10 00:41:36;;;;;;;1.77;1.23;;;21.00;52.30;;;;;;5000875;28;20045;-79
2021/05/10 00:44:02;;;;;;;3.00;1.20;;;21.00;52.90;;;;;;4999240;28;20084;-79
2021/05/10 00:46:28;;;;;;;3.75;1.10;;;20.90;52.80;;;;;;4997875;28;20121;-79
2021/05/10 00:48:54;;;;;;;3.55;1.40;;;20.90;52.90;;;;;;4978229;28;20504;-79
2021/05/10 00:51:19;;;;;;;4.55;1.10;;;20.80;52.80;;;;;;4982019;28;20053;-79
2021/05/10 00:53:46;;;;;;;3.90;1.52;;;20.80;52.90;;;;;;4989210;28;20064;-80
2021/05/10 00:56:11;;;;;;;4.47;1.50;;;20.80;52.80;;;;;;5001192;28;20478;-79
2021/05/10 00:58:38;;;;;;;4.28;1.20;;;20.80;53.10;;;;;;4969821;28;20041;-79
2021/05/10 01:01:03;;;;;;;3.33;1.13;;;20.80;53.10;;;;;;4980576;28;20638;-79
2021/05/10 01:03:29;;;;;;;3.80;1.30;;;20.90;53.00;;;;;;4965213;28;20030;-79
2021/05/10 01:05:54;;;;;;;3.00;1.10;;;20.90;52.90;;;;;;4980998;28;20037;-79
2021/05/10 01:08:20;;;;;;;2.85;1.40;;;20.80;52.80;;;;;;4988055;28;20030;-80
2021/05/10 01:10:46;;;;;;;1.85;1.17;;;20.80;53.00;;;;;;4985272;28;20565;-79
2021/05/10 01:13:12;;;;;;;6.78;1.27;;;20.80;53.20;;;;;;4980715;28;20117;-79
2021/05/10 01:15:37;;;;;;;8.95;1.20;;;20.80;53.20;;;;;;4961302;28;20030;-79
2021/05/10 01:18:03;;;;;;;1.30;1.10;;;20.80;53.40;;;;;;4979568;28;20080;-79
2021/05/10 01:20:29;;;;;;;2.45;1.80;;;20.70;53.80;;;;;;4985796;28;20035;-80
2021/05/10 01:22:56;;;;;;;4.45;1.27;;;20.70;53.50;;;;;;4998141;28;20108;-79
2021/05/10 01:25:23;;;;;;;3.25;1.65;;;20.70;53.20;;;;;;4996237;28;20050;-79
2021/05/10 01:27:48;;;;;;;3.13;1.10;;;20.80;53.10;;;;;;4979463;28;20034;-79
2021/05/10 01:30:17;;;;;;;2.80;1.13;;;20.80;52.60;;;;;;4963002;28;20041;-79
2021/05/10 01:32:43;;;;;;;2.15;1.00;;;20.80;52.60;;;;;;4982665;28;20124;-79
2021/05/10 01:35:09;;;;;;;5.10;1.45;;;20.80;52.70;;;;;;4988327;28;20053;-79
2021/05/10 01:37:35;;;;;;;3.60;1.02;;;20.80;52.80;;;;;;4996180;28;20045;-79
2021/05/10 01:40:01;;;;;;;2.97;1.35;;;20.80;52.70;;;;;;4994180;28;20072;-80
2021/05/10 01:42:26;;;;;;;3.60;1.30;;;20.90;52.40;;;;;;4974126;28;20122;-80
2021/05/10 01:44:52;;;;;;;3.80;1.30;;;20.80;52.40;;;;;;4988697;28;20129;-79
2021/05/10 01:47:18;;;;;;;1.33;1.20;;;20.80;53.10;;;;;;4972712;28;20045;-79
2021/05/10 01:49:46;;;;;;;4.88;1.13;;;20.80;52.40;;;;;;4994227;28;20034;-79
2021/05/10 01:52:13;;;;;;;2.85;1.15;;;20.90;52.50;;;;;;4990171;28;20045;-79
2021/05/10 01:54:38;;;;;;;1.20;1.10;;;20.90;52.30;;;;;;4979226;28;20030;-79
2021/05/10 01:57:04;;;;;;;2.85;1.23;;;20.90;52.30;;;;;;4958821;28;20041;-79
2021/05/10 01:59:30;;;;;;;3.65;1.20;;;20.90;52.00;;;;;;4975469;28;20042;-79
2021/05/10 02:01:55;;;;;;;3.75;1.15;;;20.90;51.70;;;;;;4999315;28;20531;-79
2021/05/10 02:04:21;;;;;;;2.75;1.05;;;21.00;51.40;;;;;;4977675;28;20463;-79
2021/05/10 02:06:46;;;;;;;1.77;0.68;;;21.00;51.20;;;;;;4947719;28;20030;-79
2021/05/10 02:09:12;;;;;;;3.53;1.33;;;21.10;51.00;;;;;;4972733;28;20030;-79
2021/05/10 02:11:37;;;;;;;0.60;0.60;;;21.20;50.80;;;;;;4981455;28;20030;-79
2021/05/10 02:14:03;;;;;;;2.00;1.15;;;21.10;50.80;;;;;;4986058;28;20053;-80
2021/05/10 02:16:29;;;;;;;2.08;1.27;;;21.30;50.80;;;;;;4995585;28;20038;-79
2021/05/10 02:18:56;;;;;;;2.58;0.90;;;21.20;50.80;;;;;;4992053;28;20034;-79
2021/05/10 02:21:26;;;;;;;3.67;1.02;;;21.20;50.80;;;;;;4976921;28;20033;-79
2021/05/10 02:23:51;;;;;;;2.97;1.05;;;21.20;50.90;;;;;;4993373;28;20026;-79
2021/05/10 02:26:17;;;;;;;4.82;1.30;;;21.20;51.00;;;;;;4965225;28;20249;-79
2021/05/10 02:28:42;;;;;;;3.58;1.10;;;21.30;51.20;;;;;;4995150;28;20029;-79
2021/05/10 02:31:08;;;;;;;1.08;0.93;;;21.20;50.90;;;;;;4981284;28;20031;-79
2021/05/10 02:33:34;;;;;;;3.00;1.40;;;21.20;52.30;;;;;;4978396;28;20117;-80
2021/05/10 02:35:59;;;;;;;4.10;1.20;;;21.10;52.50;;;;;;4976279;28;20437;-79
2021/05/10 02:38:25;;;;;;;1.83;1.27;;;21.10;52.20;;;;;;4999102;28;20527;-79
2021/05/10 02:40:51;;;;;;;3.20;1.10;;;21.00;52.10;;;;;;5001243;28;20077;-79
2021/05/10 02:43:16;;;;;;;2.25;1.30;;;21.00;52.00;;;;;;4974598;28;20116;-79
2021/05/10 02:45:43;;;;;;;2.45;1.20;;;21.00;52.20;;;;;;4965154;28;20039;-79
2021/05/10 02:48:08;;;;;;;3.55;1.45;;;21.00;52.10;;;;;;4998810;28;20394;-79
2021/05/10 02:50:34;;;;;;;3.58;1.38;;;20.90;52.10;;;;;;4950625;28;20037;-79
2021/05/10 02:53:01;;;;;;;1.40;1.20;;;20.90;52.30;;;;;;4959185;28;20085;-79
2021/05/10 02:55:26;;;;;;;6.07;1.35;;;20.90;52.30;;;;;;4983951;28;20033;-79
2021/05/10 02:57:54;;;;;;;1.77;1.20;;;20.90;53.00;;;;;;4981100;28;20037;-79
2021/05/10 03:00:23;;;;;;;2.78;1.10;;;20.80;52.40;;;;;;5000169;28;20093;-79
2021/05/10 03:02:52;;;;;;;1.60;1.30;;;20.80;52.50;;;;;;4987796;28;20492;-79
2021/05/10 03:05:20;;;;;;;6.47;1.25;;;20.70;52.70;;;;;;4986052;28;20053;-79
2021/05/10 03:07:45;;;;;;;5.47;1.98;;;20.70;52.70;;;;;;4985659;28;20025;-79
2021/05/10 03:10:13;;;;;;;4.03;1.35;;;20.70;52.70;;;;;;4968566;28;20393;-79
2021/05/10 03:12:38;;;;;;;6.07;1.70;;;20.70;52.70;;;;;;4973888;28;20058;-79
2021/05/10 03:15:06;;;;;;;3.65;1.30;;;20.50;52.80;;;;;;4966876;28;20449;-79
2021/05/10 03:17:32;;;;;;;2.47;1.23;;;20.50;52.90;;;;;;4981125;28;20034;-79
2021/05/10 03:19:57;;;;;;;2.63;1.20;;;20.60;52.90;;;;;;5003293;28;20040;-79
2021/05/10 03:22:23;;;;;;;4.13;1.23;;;20.60;52.90;;;;;;4983543;28;20038;-79
2021/05/10 03:24:48;;;;;;;2.25;1.27;;;20.60;52.90;;;;;;4981546;28;20190;-79
2021/05/10 03:27:14;;;;;;;5.00;1.10;;;20.60;52.90;;;;;;4981772;28;20037;-79
2021/05/10 03:29:39;;;;;;;4.03;1.48;;;20.50;52.90;;;;;;4983569;28;20097;-79
2021/05/10 03:32:05;;;;;;;4.88;1.40;;;20.40;53.10;;;;;;5001532;28;20038;-79
2021/05/10 03:34:31;;;;;;;3.50;1.48;;;20.50;53.20;;;;;;4983569;28;20039;-79
2021/05/10 03:36:56;;;;;;;2.67;1.33;;;20.40;53.10;;;;;;4995014;28;20038;-79
2021/05/10 03:39:22;;;;;;;2.38;1.40;;;20.40;53.10;;;;;;4983739;28;20022;-79
2021/05/10 03:41:47;;;;;;;1.65;1.30;;;20.30;53.20;;;;;;4981301;28;20080;-79
2021/05/10 03:44:13;;;;;;;3.67;1.40;;;20.30;53.30;;;;;;4986501;28;20420;-79
2021/05/10 03:46:38;;;;;;;2.03;1.00;;;20.20;53.30;;;;;;4999591;28;20022;-79
2021/05/10 03:49:04;;;;;;;3.88;1.05;;;20.20;53.50;;;;;;4997137;28;20033;-79
2021/05/10 03:51:29;;;;;;;6.90;1.55;;;20.20;53.50;;;;;;4991238;28;20037;-79
2021/05/10 03:53:55;;;;;;;3.33;1.35;;;20.20;53.40;;;;;;4980209;28;20026;-79
2021/05/10 03:56:21;;;;;;;3.38;1.40;;;20.10;53.40;;;;;;4998889;28;20026;-79
2021/05/10 03:58:46;;;;;;;4.43;1.38;;;20.10;53.50;;;;;;4985036;28;20058;-79
2021/05/10 04:01:12;;;;;;;2.00;1.35;;;20.10;53.70;;;;;;4985094;28;20084;-79
2021/05/10 04:03:46;;;;;;;5.50;1.52;;;20.00;53.50;;;;;;4981323;28;20030;-79
2021/05/10 04:06:31;;;;;;;5.22;1.45;;;20.00;53.40;;;;;;4963568;28;20140;-79
2021/05/10 04:14:36;;;;;;;2.35;0.98;;;20.00;53.50;;;;;;4986372;28;20045;-78
2021/05/10 04:17:01;;;;;;;2.78;0.80;;;20.20;53.10;;;;;;4994085;28;20389;-78
2021/05/10 04:19:27;;;;;;;2.60;1.25;;;20.20;52.90;;;;;;4993815;28;20030;-79
2021/05/10 04:21:52;;;;;;;2.30;1.23;;;20.30;52.90;;;;;;4978805;28;20118;-78
2021/05/10 04:24:18;;;;;;;1.65;0.88;;;20.30;52.80;;;;;;4982557;28;20373;-79
2021/05/10 04:26:44;;;;;;;1.58;0.98;;;20.30;52.80;;;;;;4997001;28;20331;-78
2021/05/10 04:29:12;;;;;;;2.95;1.23;;;20.50;54.20;;;;;;4994922;28;20085;-79
2021/05/10 04:31:37;;;;;;;2.60;1.10;;;20.40;54.80;;;;;;4971434;28;20036;-78
2021/05/10 04:34:03;;;;;;;6.15;1.40;;;20.30;54.80;;;;;;4971193;28;20121;-78
2021/05/10 04:36:28;;;;;;;5.85;1.60;;;20.30;54.90;;;;;;4982954;28;20038;-79
2021/05/10 04:38:54;;;;;;;1.42;1.20;;;20.30;54.90;;;;;;4987894;28;20108;-79
2021/05/10 04:41:19;;;;;;;2.28;1.40;;;20.30;55.30;;;;;;4984736;28;20060;-80
2021/05/10 04:43:45;;;;;;;3.83;1.50;;;20.30;59.00;;;;;;4981424;28;20064;-79
2021/05/10 04:46:11;;;;;;;3.58;1.58;;;20.20;60.10;;;;;;4990702;28;20052;-79
2021/05/10 04:48:36;;;;;;;1.40;1.27;;;20.00;61.40;;;;;;4963267;28;20045;-80
2021/05/10 04:51:02;;;;;;;4.28;2.10;;;19.80;62.50;;;;;;4987762;28;20121;-80
2021/05/10 04:53:27;;;;;;;4.53;2.10;;;19.70;63.20;;;;;;4985487;28;20037;-80
2021/05/10 04:55:53;;;;;;;2.33;1.58;;;19.50;65.00;;;;;;4997478;28;20266;-81
2021/05/10 04:58:18;;;;;;;5.28;1.80;;;19.40;65.80;;;;;;4964711;28;20066;-81
2021/05/10 05:00:44;;;;;;;3.22;1.77;;;19.30;65.90;;;;;;4995797;28;20117;-81
2021/05/10 05:03:09;;;;;;;5.65;1.33;;;19.10;66.50;;;;;;4987937;28;20029;-80
2021/05/10 05:05:35;;;;;;;3.28;1.58;;;19.00;66.60;;;;;;4983666;28;20107;-80
2021/05/10 05:08:00;;;;;;;2.28;1.50;;;19.00;66.20;;;;;;4980833;28;20084;-80
2021/05/10 05:10:26;;;;;;;4.03;1.30;;;19.00;66.40;;;;;;4988472;28;20104;-80
2021/05/10 05:12:52;;;;;;;4.45;1.75;;;19.00;65.90;;;;;;5002137;28;20391;-80
2021/05/10 05:15:18;;;;;;;4.55;1.20;;;19.00;66.00;;;;;;4982932;28;20034;-81
2021/05/10 05:17:43;;;;;;;2.90;1.33;;;19.00;66.40;;;;;;4986691;28;20030;-80
2021/05/10 05:20:10;;;;;;;4.82;1.60;;;19.10;66.90;;;;;;4983600;28;20045;-80
2021/05/10 05:22:36;;;;;;;2.90;1.27;;;19.00;66.30;;;;;;4964440;28;20038;-81
2021/05/10 05:25:03;;;;;;;5.43;1.30;;;19.00;65.90;;;;;;4978306;28;20042;-80
2021/05/10 05:27:28;;;;;;;3.08;1.55;;;19.00;65.70;;;;;;4962218;28;20031;-79
2021/05/10 05:29:54;;;;;;;3.00;1.75;;;19.00;65.70;;;;;;4988357;28;20375;-80
2021/05/10 05:32:21;;;;;;;4.75;1.25;;;19.00;65.70;;;;;;4984245;28;20046;-81
2021/05/10 05:34:46;;;;;;;3.83;1.50;;;19.10;65.50;;;;;;4981916;28;20465;-79
2021/05/10 05:37:13;;;;;;;2.28;1.08;;;19.00;66.00;;;;;;4964022;28;20148;-80
2021/05/10 05:39:38;;;;;;;6.03;1.50;;;19.00;65.60;;;;;;4980780;28;20594;-80
2021/05/10 05:42:04;;;;;;;6.78;1.67;;;19.10;65.30;;;;;;4986072;28;20618;-80
2021/05/10 05:44:33;;;;;;;4.20;1.60;;;19.20;64.80;;;;;;4983902;28;20038;-81
2021/05/10 05:47:06;;;;;;;3.30;1.38;;;19.20;64.40;;;;;;4974012;28;20038;-81
2021/05/10 05:49:34;;;;;;;4.80;1.27;;;19.30;64.30;;;;;;4982127;28;20037;-80
2021/05/10 05:52:04;;;;;;;2.80;1.27;;;19.30;64.70;;;;;;4985724;28;20022;-80
2021/05/10 05:54:30;;;;;;;1.02;0.93;;;19.30;65.30;;;;;;4981845;28;20061;-80
2021/05/10 05:56:56;;;;;;;3.60;1.17;;;19.20;66.00;;;;;;4985121;28;20117;-80
2021/05/10 05:59:21;;;;;;;5.50;1.65;;;19.20;66.50;;;;;;4982873;28;20041;-80
2021/05/10 06:01:48;;;;;;;4.97;1.50;;;19.10;67.20;;;;;;4980593;28;20042;-81
2021/05/10 06:04:16;;;;;;;5.85;1.58;;;19.10;67.70;;;;;;4992937;28;20038;-81
2021/05/10 06:06:42;;;;;;;2.42;1.10;;;19.00;68.10;;;;;;4967521;28;20038;-81
2021/05/10 06:09:09;;;;;;;2.80;1.15;;;18.90;68.40;;;;;;4965268;28;20036;-81
2021/05/10 06:11:35;;;;;;;4.22;1.80;;;18.70;69.30;;;;;;4981005;28;20030;-81
2021/05/10 06:14:00;;;;;;;4.07;1.65;;;18.70;69.90;;;;;;4986178;28;20033;-81
2021/05/10 06:16:27;;;;;;;3.50;1.67;;;18.70;70.00;;;;;;4979293;28;20046;-81
2021/05/10 06:18:53;;;;;;;4.15;1.52;;;18.70;69.80;;;;;;4972226;28;20036;-81
2021/05/10 06:21:19;;;;;;;5.35;1.55;;;18.60;69.90;;;;;;4990413;28;20027;-81
2021/05/10 06:23:44;;;;;;;5.90;1.92;;;18.60;70.40;;;;;;4986496;28;20389;-81
2021/05/10 06:26:10;;;;;;;6.47;1.75;;;18.60;71.10;;;;;;4971294;28;20516;-81
2021/05/10 06:28:35;;;;;;;3.67;1.48;;;18.50;71.10;;;;;;4983585;28;20042;-81
2021/05/10 06:31:01;;;;;;;2.13;1.83;;;18.50;71.40;;;;;;4967463;28;20045;-81
2021/05/10 06:33:26;;;;;;;2.53;1.30;;;18.50;71.90;;;;;;4977241;28;20034;-81
2021/05/10 06:35:52;;;;;;;3.22;1.40;;;18.40;71.70;;;;;;4964869;28;20031;-81
2021/05/10 06:38:20;;;;;;;4.05;1.55;;;18.50;71.60;;;;;;4994068;28;20457;-82
2021/05/10 06:40:45;;;;;;;5.20;1.42;;;18.50;71.60;;;;;;4984451;28;20038;-81
2021/05/10 06:43:11;;;;;;;2.95;1.30;;;18.60;71.10;;;;;;5001906;28;20030;-81
2021/05/10 06:45:36;;;;;;;5.35;1.67;;;18.70;70.80;;;;;;4982965;28;20092;-81
2021/05/10 06:48:02;;;;;;;2.35;1.40;;;18.60;70.40;;;;;;4970332;28;20401;-80
2021/05/10 06:50:28;;;;;;;7.28;1.52;;;18.70;70.30;;;;;;4971462;28;20065;-81
2021/05/10 06:52:53;;;;;;;5.00;1.30;;;18.70;70.20;;;;;;4971996;28;20034;-80
2021/05/10 06:55:19;;;;;;;3.85;2.50;;;18.70;69.80;;;;;;5000755;28;20030;-80
2021/05/10 06:57:45;;;;;;;3.38;1.30;;;18.80;69.80;;;;;;4969803;28;20037;-80
2021/05/10 07:00:13;;;;;;;6.57;1.50;;;18.90;69.90;;;;;;4968655;28;20411;-80
2021/05/10 07:02:39;;;;;;;2.70;1.38;;;19.10;69.10;;;;;;4963459;28;20046;-80
2021/05/10 07:05:05;;;;;;;3.13;1.58;;;19.20;69.40;;;;;;4979149;28;20042;-80
2021/05/10 07:07:31;;;;;;;5.13;1.80;;;19.50;68.60;;;;;;4985702;28;20489;-80
2021/05/10 07:09:56;;;;;;;2.78;1.60;;;19.50;68.10;;;;;;4964955;28;20061;-80
2021/05/10 07:12:22;;;;;;;5.53;1.33;;;19.70;68.30;;;;;;4972561;28;20050;-80
2021/05/10 07:14:47;;;;;;;1.30;1.20;;;19.80;67.70;;;;;;4970455;28;20034;-80
2021/05/10 07:17:13;;;;;;;4.47;1.70;;;20.10;67.30;;;;;;4969812;28;20068;-81
2021/05/10 07:19:39;;;;;;;7.53;1.95;;;20.30;67.90;;;;;;4984760;28;20041;-80
2021/05/10 07:22:07;;;;;;;2.90;1.33;;;20.60;67.20;;;;;;4982824;28;20063;-80
2021/05/10 07:24:33;;;;;;;3.22;1.88;;;20.80;66.20;;;;;;4972799;28;20038;-81
2021/05/10 07:26:58;;;;;;;5.72;1.40;;;21.10;64.80;;;;;;4988417;28;20033;-80
2021/05/10 07:29:24;;;;;;;5.05;1.38;;;21.30;64.60;;;;;;4974801;28;20088;-80
2021/05/10 07:31:49;;;;;;;5.63;1.77;;;21.40;63.30;;;;;;4970925;28;20042;-80
2021/05/10 07:34:15;;;;;;;4.25;1.50;;;21.70;62.60;;;;;;4988737;28;20042;-80
2021/05/10 07:36:40;;;;;;;3.28;1.02;;;22.00;62.60;;;;;;4987052;28;20038;-80
2021/05/10 07:39:06;;;;;;;3.17;1.40;;;22.30;61.40;;;;;;4988411;28;20057;-80
2021/05/10 07:41:32;;;;;;;3.30;1.33;;;22.50;60.90;;;;;;4989770;28;20054;-80
2021/05/10 07:43:57;;;;;;;3.58;1.23;;;22.50;60.30;;;;;;4971089;28;20604;-80
2021/05/10 07:46:24;;;;;;;1.15;0.65;;;22.70;59.60;;;;;;4999115;28;20437;-79
2021/05/10 07:48:49;;;;;;;3.83;1.00;;;22.70;59.00;;;;;;4974654;28;20034;-80
2021/05/10 07:51:15;;;;;;;2.78;1.20;;;22.90;58.80;;;;;;4988241;28;20038;-79
2021/05/10 07:53:41;;;;;;;2.22;1.17;;;23.40;58.10;;;;;;4987567;28;20080;-80
2021/05/10 07:56:07;;;;;;;2.50;1.20;;;23.40;57.40;;;;;;4969318;28;20083;-79
2021/05/10 07:58:32;;;;;;;1.17;0.90;;;23.40;57.90;;;;;;4986279;28;20099;-80
2021/05/10 08:01:01;;;;;;;0.60;0.60;;;23.70;56.70;;;;;;4987730;28;20275;-80
2021/05/10 08:03:29;;;;;;;2.85;0.98;;;23.40;56.00;;;;;;4976109;28;20030;-80
2021/05/10 08:05:54;;;;;;;1.38;1.02;;;23.20;56.10;;;;;;4969391;28;20034;-80
2021/05/10 08:08:23;;;;;;;0.90;0.90;;;23.00;56.90;;;;;;5001870;28;20089;-79
2021/05/10 08:10:49;;;;;;;1.70;1.02;;;23.30;56.10;;;;;;4988447;28;20091;-80
2021/05/10 08:13:15;;;;;;;0.70;0.60;;;23.00;56.90;;;;;;4984405;28;20049;-79
2021/05/10 08:15:40;;;;;;;1.70;1.10;;;22.80;57.00;;;;;;4988198;28;20617;-79
2021/05/10 08:18:06;;;;;;;1.65;0.95;;;22.50;57.60;;;;;;4986722;28;20037;-79
2021/05/10 08:20:31;;;;;;;1.92;1.10;;;22.70;57.10;;;;;;4972462;28;20396;-79
2021/05/10 08:22:57;;;;;;;4.88;0.80;;;22.60;57.00;;;;;;4988074;28;20513;-79
2021/05/10 08:25:23;;;;;;;3.33;1.75;;;22.60;57.30;;;;;;4965830;28;20065;-79
2021/05/10 08:27:48;;;;;;;5.72;0.93;;;22.70;57.60;;;;;;4973163;28;20045;-80
2021/05/10 08:30:15;;;;;;;0.50;0.47;;;22.50;57.60;;;;;;4987157;28;20496;-79
2021/05/10 08:32:40;;;;;;;1.65;1.00;;;22.30;57.80;;;;;;4974012;28;20042;-79
2021/05/10 08:35:06;;;;;;;1.70;0.82;;;22.40;57.00;;;;;;4989387;28;20041;-79
2021/05/10 08:37:32;;;;;;;3.33;1.52;;;22.40;57.00;;;;;;4972593;28;20033;-80
2021/05/10 08:39:58;;;;;;;1.50;0.77;;;22.30;57.40;;;;;;4986878;28;20033;-80
2021/05/10 08:42:24;;;;;;;1.88;0.85;;;22.20;57.10;;;;;;4972843;28;20084;-79
2021/05/10 08:44:49;;;;;;;3.08;0.73;;;22.00;57.40;;;;;;4972314;28;20042;-79
2021/05/10 08:47:15;;;;;;;3.22;0.70;;;21.90;57.40;;;;;;4986839;28;20046;-79
2021/05/10 08:49:40;;;;;;;1.27;0.68;;;22.00;57.70;;;;;;4987117;28;20034;-79
2021/05/10 08:52:06;;;;;;;0.60;0.52;;;22.10;57.50;;;;;;4977614;28;20036;-79
2021/05/10 08:54:32;;;;;;;2.85;0.60;;;22.10;57.00;;;;;;4981866;28;20057;-79
2021/05/10 08:57:00;;;;;;;1.35;0.40;;;22.20;56.90;;;;;;4970803;28;20113;-80
2021/05/10 08:59:26;;;;;;;0.63;0.47;;;22.00;57.20;;;;;;4987749;28;20121;-79
2021/05/10 09:01:55;;;;;;;1.55;0.50;;;22.00;57.10;;;;;;4986781;28;20322;-79
2021/05/10 09:04:34;;;;;;;0.85;0.40;;;22.00;57.20;;;;;;4987153;28;20564;-79
2021/05/10 09:07:11;;;;;;;3.40;0.40;;;21.80;57.20;;;;;;4974544;28;20385;-79
2021/05/10 09:09:57;;;;;;;0.60;0.40;;;21.70;57.40;;;;;;5000723;28;20030;-79
2021/05/10 09:12:47;;;;;;;2.78;0.85;;;21.50;57.90;;;;;;4983095;28;20030;-81
2021/05/10 09:15:19;;;;;;;2.28;0.60;;;21.50;57.80;;;;;;4993600;28;20030;-80
2021/05/10 09:17:49;;;;;;;0.85;0.43;;;21.20;58.40;;;;;;4997566;28;20036;-80
2021/05/10 09:20:16;;;;;;;2.70;0.50;;;21.10;58.60;;;;;;4997288;28;20080;-80
2021/05/10 09:22:49;;;;;;;1.02;0.43;;;21.20;58.50;;;;;;4967922;28;20029;-79
2021/05/10 09:25:15;;;;;;;1.13;0.40;;;21.00;58.70;;;;;;4966374;28;20030;-80
2021/05/10 09:27:44;;;;;;;1.45;0.50;;;20.90;58.80;;;;;;4956026;28;20141;-80
2021/05/10 09:30:17;;;;;;;1.83;0.60;;;21.00;59.00;;;;;;4964555;28;20061;-80
2021/05/10 09:32:53;;;;;;;1.27;0.30;;;21.10;58.70;;;;;;4993957;28;20046;-80
2021/05/10 09:35:22;;;;;;;0.40;0.40;;;21.20;58.40;;;;;;4965293;28;20026;-80
2021/05/10 09:37:54;;;;;;;2.60;0.70;;;21.00;58.60;;;;;;4997337;28;20038;-80
2021/05/10 09:40:20;;;;;;;1.33;0.77;;;21.20;58.70;;;;;;5002754;28;20550;-80
2021/05/10 09:42:53;;;;;;;4.13;0.70;;;21.30;58.30;;;;;;4972133;28;20029;-79
2021/05/10 09:45:35;;;;;;;2.63;0.75;;;21.40;58.10;;;;;;4978302;28;20034;-80
2021/05/10 09:48:11;;;;;;;0.30;0.22;;;21.50;58.20;;;;;;4965730;28;20026;-79
2021/05/10 09:50:42;;;;;;;1.25;0.50;;;21.50;58.00;;;;;;4983448;28;20030;-80
2021/05/10 09:53:11;;;;;;;0.55;0.30;;;21.70;58.00;;;;;;4986753;28;20022;-79
2021/05/10 09:55:56;;;;;;;2.25;0.43;;;21.70;57.60;;;;;;4971252;28;20034;-79
2021/05/10 09:58:24;;;;;;;0.65;0.40;;;21.70;57.50;;;;;;4973886;28;20037;-80
2021/05/10 10:00:56;;;;;;;0.88;0.40;;;21.90;57.30;;;;;;4985117;28;20025;-81
2021/05/10 10:03:29;;;;;;;1.27;0.28;;;22.00;56.60;;;;;;4972268;28;20105;-79
2021/05/10 10:05:57;;;;;;;1.05;0.30;;;22.10;55.80;;;;;;4958316;28;20430;-80
2021/05/10 10:08:23;;;;;;;1.15;0.30;;;21.90;56.10;;;;;;4981893;28;20501;-80
2021/05/10 10:10:48;;;;;;;1.77;0.50;;;22.10;56.10;;;;;;4975098;28;20233;-81
2021/05/10 10:13:15;;;;;;;0.57;0.30;;;22.20;55.70;;;;;;4983866;28;20038;-80
2021/05/10 10:15:41;;;;;;;0.43;0.20;;;22.30;56.00;;;;;;4972719;28;20033;-81
2021/05/10 10:18:09;;;;;;;0.60;0.32;;;22.20;55.20;;;;;;4982682;28;20113;-80
2021/05/10 10:20:36;;;;;;;6.38;0.55;;;22.30;55.20;;;;;;4969748;28;20030;-81
2021/05/10 10:23:05;;;;;;;0.70;0.40;;;22.30;55.30;;;;;;4974693;28;20029;-80
2021/05/10 10:25:31;;;;;;;0.68;0.30;;;22.30;55.00;;;;;;4977383;28;20041;-79
2021/05/10 10:28:00;;;;;;;0.60;0.20;;;22.10;54.70;;;;;;4966217;28;20026;-80
2021/05/10 10:30:26;;;;;;;0.60;0.40;;;22.00;54.90;;;;;;4971454;28;20037;-80
2021/05/10 10:32:51;;;;;;;3.20;0.40;;;22.10;55.30;;;;;;4969593;28;20038;-80
2021/05/10 10:35:20;;;;;;;0.63;0.40;;;22.30;54.60;;;;;;4966942;28;20022;-82
2021/05/10 10:37:45;;;;;;;1.50;0.40;;;22.10;54.80;;;;;;4962216;28;20124;-79
2021/05/10 10:40:20;;;;;;;1.13;0.30;;;22.10;54.70;;;;;;4970784;28;20145;-82
2021/05/10 10:42:45;;;;;;;5.57;0.43;;;21.80;55.00;;;;;;4983657;28;20034;-80
2021/05/10 10:45:11;;;;;;;2.33;0.40;;;21.60;55.30;;;;;;4970077;28;20038;-80
2021/05/10 10:47:52;;;;;;;1.00;0.28;;;21.50;55.50;;;;;;4982857;28;20038;-80
2021/05/10 10:50:19;;;;;;;1.00;0.50;;;21.90;55.50;;;;;;4973392;28;20513;-81
2021/05/10 10:52:49;;;;;;;4.30;0.45;;;22.20;55.50;;;;;;4982947;28;20029;-80
2021/05/10 10:55:24;;;;;;;1.10;0.40;;;22.30;54.40;;;;;;4988705;28;20126;-80
2021/05/10 10:57:53;;;;;;;1.45;0.47;;;22.20;54.50;;;;;;5006878;28;20034;-81
2021/05/10 11:00:19;;;;;;;0.90;0.40;;;22.30;54.50;;;;;;4989095;28;20053;-80
2021/05/10 11:02:51;;;;;;;0.40;0.40;;;22.30;54.50;;;;;;4989475;28;20030;-81
2021/05/10 11:05:20;;;;;;;4.20;0.47;;;22.00;54.80;;;;;;4984257;28;20397;-79
2021/05/10 11:07:58;;;;;;;0.57;0.50;;;22.30;55.00;;;;;;4972349;28;20128;-80
2021/05/10 11:10:52;;;;;;;0.85;0.50;;;22.70;55.30;;;;;;4988171;28;20042;-81
2021/05/10 11:13:29;;;;;;;1.00;0.50;;;22.30;54.70;;;;;;5005004;28;20026;-79
2021/05/10 11:15:59;;;;;;;1.98;0.82;;;22.70;54.90;;;;;;4996745;28;20121;-79
2021/05/10 11:18:55;;;;;;;0.73;0.40;;;22.90;55.60;;;;;;4985909;28;20031;-79
2021/05/10 11:21:24;;;;;;;1.42;0.32;;;22.50;54.40;;;;;;5004689;28;20097;-79
2021/05/10 11:23:56;;;;;;;0.65;0.50;;;22.40;55.40;;;;;;5006496;28;20447;-80
2021/05/10 11:26:51;;;;;;;3.25;0.60;;;22.80;55.00;;;;;;4991830;28;20056;-79
2021/05/10 11:29:26;;;;;;;1.35;0.60;;;23.30;55.10;;;;;;4975981;28;20030;-80
2021/05/10 11:31:56;;;;;;;1.08;0.60;;;23.20;54.50;;;;;;5005578;28;20038;-79
2021/05/10 11:34:25;;;;;;;0.68;0.55;;;23.40;54.30;;;;;;5007580;28;20050;-80
2021/05/10 11:36:52;;;;;;;2.08;0.57;;;23.40;54.60;;;;;;4960237;28;20566;-80
2021/05/10 11:39:21;;;;;;;0.70;0.50;;;23.70;54.30;;;;;;5003103;28;20095;-80
2021/05/10 11:41:49;;;;;;;1.13;0.57;;;24.00;53.90;;;;;;4973520;28;20034;-80
2021/05/10 11:44:22;;;;;;;0.52;0.50;;;24.20;54.30;;;;;;4973770;28;20088;-80
2021/05/10 11:46:50;;;;;;;0.35;0.35;;;24.10;53.20;;;;;;4986235;28;20045;-80
2021/05/10 11:49:34;;;;;;;0.80;0.50;;;24.10;53.40;;;;;;4972147;28;20030;-80
2021/05/10 11:52:07;;;;;;;0.65;0.65;;;24.40;53.00;;;;;;4990007;28;20045;-80
2021/05/10 11:54:32;;;;;;;1.65;0.52;;;25.20;53.50;;;;;;4988339;28;20099;-79
2021/05/10 11:57:01;;;;;;;2.38;0.68;;;25.60;52.50;;;;;;4981553;28;20585;-80
2021/05/10 11:59:58;;;;;;;1.98;0.57;;;25.50;52.40;;;;;;4974085;28;20038;-80
2021/05/10 12:02:28;;;;;;;1.05;0.70;;;25.60;53.00;;;;;;4990239;28;20109;-79
2021/05/10 12:04:58;;;;;;;3.25;0.63;;;25.60;52.10;;;;;;4974700;28;20481;-79
2021/05/10 12:07:27;;;;;;;1.23;0.60;;;25.40;51.90;;;;;;4985860;28;20038;-79
2021/05/10 12:10:03;;;;;;;1.92;0.68;;;25.50;51.60;;;;;;4970783;28;20087;-78
2021/05/10 12:12:40;;;;;;;2.65;0.60;;;25.20;51.90;;;;;;5003817;28;20048;-79
2021/05/10 12:15:06;;;;;;;1.08;0.70;;;25.60;51.30;;;;;;4992437;28;20023;-78
2021/05/10 12:17:31;;;;;;;1.02;0.55;;;25.50;51.30;;;;;;5005857;28;20092;-78
2021/05/10 12:20:04;;;;;;;0.77;0.55;;;25.20;52.30;;;;;;4970477;28;20219;-78
2021/05/10 12:22:36;;;;;;;0.85;0.55;;;26.40;52.60;;;;;;5005495;28;20065;-79
2021/05/10 12:25:09;;;;;;;0.90;0.60;;;25.80;50.70;;;;;;5002467;28;20497;-78
2021/05/10 12:27:43;;;;;;;0.95;0.60;;;25.30;51.40;;;;;;5001012;28;20482;-78
2021/05/10 12:30:20;;;;;;;1.40;0.68;;;25.00;51.40;;;;;;4996885;28;20040;-77
2021/05/10 12:32:48;;;;;;;0.70;0.52;;;25.30;51.20;;;;;;4986798;28;20033;-78
2021/05/10 12:35:17;;;;;;;0.85;0.50;;;25.10;50.70;;;;;;4970803;28;20104;-78
2021/05/10 12:37:47;;;;;;;3.20;0.50;;;25.70;51.20;;;;;;4969251;28;20037;-79
2021/05/10 12:40:14;;;;;;;0.40;0.40;;;25.30;51.00;;;;;;4972845;28;20126;-77
2021/05/10 12:42:40;;;;;;;1.75;0.68;;;24.60;51.20;;;;;;4988198;28;20030;-78
2021/05/10 12:45:10;;;;;;;1.33;0.75;;;24.80;52.30;;;;;;5005193;28;20052;-77
2021/05/10 12:47:56;;;;;;;2.40;1.27;;;25.30;51.70;;;;;;4987447;28;20033;-77
2021/05/10 12:50:31;;;;;;;2.37;1.30;;;25.40;51.50;;;;;;5002744;28;20029;-77
2021/05/10 12:52:58;;;;;;;1.92;0.95;;;25.10;51.70;;;;;;4987856;28;20026;-78
2021/05/10 12:55:23;;;;;;;1.98;1.40;;;24.90;52.30;;;;;;4997049;28;20061;-79